createdAt,value
2023-02-01T00:02:42.031Z,2.70
2023-02-01T00:07:48.735Z,2.60
2023-02-01T00:12:58.151Z,2.70
2023-02-01T00:18:02.903Z,2.70
2023-02-01T00:23:06.191Z,2.70
2023-02-01T00:28:17.653Z,2.70
2023-02-01T00:33:22.349Z,2.70
2023-02-01T00:38:33.362Z,2.70
2023-02-01T00:43:37.065Z,2.80
2023-02-01T00:48:43.258Z,2.80
2023-02-01T00:53:46.713Z,2.90
2023-02-01T00:58:50.257Z,2.90
2023-02-01T01:03:57.137Z,2.80
2023-02-01T01:09:02.324Z,2.90
2023-02-01T01:14:07.380Z,2.80
2023-02-01T01:19:12.947Z,2.90
2023-02-01T01:24:16.308Z,2.90
2023-02-01T01:29:21.780Z,2.90
2023-02-01T01:34:28.567Z,2.90
2023-02-01T01:39:32.136Z,3.00
2023-02-01T01:44:59.592Z,3.00
2023-02-01T01:50:12.398Z,3.10
2023-02-01T01:55:17.129Z,3.00
2023-02-01T02:00:22.905Z,3.10
2023-02-01T02:05:30.299Z,3.00
2023-02-01T02:10:53.435Z,3.00
2023-02-01T02:16:49.218Z,3.10
2023-02-01T02:22:12.156Z,3.10
2023-02-01T02:27:27.894Z,3.20
2023-02-01T02:33:12.660Z,3.30
2023-02-01T02:38:32.425Z,3.20
2023-02-01T02:44:03.646Z,3.20
2023-02-01T02:49:18.666Z,3.20
2023-02-01T02:54:45.388Z,3.20
2023-02-01T03:00:08.245Z,3.20
2023-02-01T03:05:11.492Z,3.20
2023-02-01T03:10:26.399Z,3.20
2023-02-01T03:15:34.617Z,3.20
2023-02-01T03:20:39.875Z,3.20
2023-02-01T03:25:44.959Z,3.20
2023-02-01T03:30:51.350Z,3.20
2023-02-01T03:36:03.319Z,3.20
2023-02-01T03:41:14.481Z,3.20
2023-02-01T03:46:23.458Z,3.20
2023-02-01T03:51:30.700Z,3.30
2023-02-01T03:56:39.491Z,3.30
2023-02-01T04:01:44.025Z,3.10
2023-02-01T04:06:47.455Z,3.20
2023-02-01T04:11:52.031Z,3.20
2023-02-01T04:16:59.488Z,3.10
2023-02-01T04:22:02.697Z,3.20
2023-02-01T04:27:07.377Z,3.10
2023-02-01T04:32:10.762Z,3.10
2023-02-01T04:37:20.470Z,3.10
2023-02-01T04:42:25.156Z,3.10
2023-02-01T04:47:28.592Z,3.00
2023-02-01T04:52:33.068Z,3.00
2023-02-01T04:57:39.841Z,3.10
2023-02-01T05:02:46.257Z,3.10
2023-02-01T05:07:49.610Z,3.20
2023-02-01T05:13:11.562Z,3.30
2023-02-01T05:18:15.047Z,3.20
2023-02-01T05:23:18.404Z,3.10
2023-02-01T05:28:23.179Z,3.20
2023-02-01T05:33:33.519Z,3.20
2023-02-01T05:38:38.891Z,3.20
2023-02-01T05:43:43.761Z,3.30
2023-02-01T05:48:55.094Z,3.30
2023-02-01T05:53:59.526Z,3.30
2023-02-01T05:59:05.404Z,3.30
2023-02-01T06:04:10.940Z,3.40
2023-02-01T06:09:20.206Z,3.40
2023-02-01T06:14:33.803Z,3.40
2023-02-01T06:19:37.270Z,3.40
2023-02-01T06:24:42.048Z,3.40
2023-02-01T06:29:56.299Z,3.50
2023-02-01T06:35:00.315Z,3.50
2023-02-01T06:40:03.589Z,3.50
2023-02-01T06:45:09.737Z,3.30
2023-02-01T06:50:13.479Z,3.20
2023-02-01T06:55:17.012Z,3.20
2023-02-01T07:00:23.104Z,3.20
2023-02-01T07:05:26.580Z,3.20
2023-02-01T07:10:29.904Z,3.20
2023-02-01T07:15:34.861Z,3.20
2023-02-01T07:20:38.104Z,3.00
2023-02-01T07:25:41.484Z,3.00
2023-02-01T07:30:51.873Z,3.10
2023-02-01T07:35:55.305Z,3.20
2023-02-01T07:41:01.899Z,3.20
2023-02-01T07:46:07.882Z,3.20
2023-02-01T07:51:13.896Z,3.20
2023-02-01T07:56:19.197Z,3.20
2023-02-01T08:01:26.337Z,3.30
2023-02-01T08:06:32.056Z,3.40
2023-02-01T08:11:35.222Z,3.60
2023-02-01T08:16:40.372Z,3.60
2023-02-01T08:21:43.578Z,3.70
2023-02-01T08:26:46.905Z,3.80
2023-02-01T08:31:51.898Z,3.90
2023-02-01T08:36:59.374Z,3.80
2023-02-01T08:42:20.109Z,3.90
2023-02-01T08:47:24.856Z,4.00
2023-02-01T08:52:28.541Z,4.10
2023-02-01T08:57:31.969Z,4.10
2023-02-01T09:02:36.953Z,4.30
2023-02-01T09:07:40.638Z,4.50
2023-02-01T09:12:44.014Z,4.50
2023-02-01T09:17:48.705Z,4.30
2023-02-01T09:22:52.956Z,4.00
2023-02-01T09:27:56.296Z,4.00
2023-02-01T09:33:01.292Z,3.90
2023-02-01T09:38:04.847Z,3.80
2023-02-01T09:43:26.088Z,3.80
2023-02-01T09:48:35.099Z,3.90
2023-02-01T09:53:43.340Z,3.90
2023-02-01T09:58:52.519Z,4.10
2023-02-01T10:04:04.142Z,4.20
2023-02-01T10:09:19.131Z,4.40
2023-02-01T10:14:45.914Z,4.40
2023-02-01T10:20:00.188Z,4.30
2023-02-01T10:25:09.893Z,4.40
2023-02-01T10:30:21.690Z,4.40
2023-02-01T10:35:32.143Z,4.60
2023-02-01T10:40:36.089Z,4.80
2023-02-01T10:45:43.520Z,5.20
2023-02-01T10:50:53.577Z,5.20
2023-02-01T10:55:57.243Z,5.10
2023-02-01T11:01:03.948Z,5.10
2023-02-01T11:06:19.541Z,4.90
2023-02-01T11:11:23.892Z,4.90
2023-02-01T11:16:38.070Z,4.90
2023-02-01T11:21:45.910Z,5.00
2023-02-01T11:26:49.264Z,5.00
2023-02-01T11:31:56.495Z,4.90
2023-02-01T11:37:04.333Z,4.80
2023-02-01T11:42:15.362Z,4.70
2023-02-01T11:47:29.355Z,4.80
2023-02-01T11:52:59.898Z,4.70
2023-02-01T11:58:15.155Z,4.70
2023-02-01T12:03:47.028Z,4.90
2023-02-01T12:09:08.303Z,4.80
2023-02-01T12:14:25.139Z,4.90
2023-02-01T12:19:48.419Z,4.80
2023-02-01T12:25:11.426Z,4.80
2023-02-01T12:30:45.225Z,4.80
2023-02-01T12:36:01.760Z,4.80
2023-02-01T12:41:20.736Z,4.90
2023-02-01T12:46:31.033Z,4.80
2023-02-01T12:51:38.317Z,4.80
2023-02-01T12:56:46.588Z,4.80
2023-02-01T13:01:57.693Z,4.90
2023-02-01T13:07:08.048Z,4.80
2023-02-01T13:12:17.672Z,4.70
2023-02-01T13:17:25.666Z,4.60
2023-02-01T13:22:33.691Z,4.50
2023-02-01T13:27:42.445Z,4.50
2023-02-01T13:33:53.466Z,4.40
2023-02-01T13:39:05.123Z,4.40
2023-02-01T13:44:15.133Z,4.40
2023-02-01T13:49:24.565Z,4.40
2023-02-01T13:54:33.529Z,4.60
2023-02-01T14:00:08.129Z,4.70
2023-02-01T14:05:12.810Z,4.70
2023-02-01T14:10:50.264Z,4.60
2023-02-01T14:16:18.552Z,4.60
2023-02-01T14:21:27.000Z,4.60
2023-02-01T14:26:44.772Z,4.60
2023-02-01T14:32:06.950Z,4.60
2023-02-01T14:37:15.037Z,4.70
2023-02-01T14:42:24.745Z,4.80
2023-02-01T14:47:34.888Z,4.70
2023-02-01T14:52:43.538Z,4.60
2023-02-01T14:57:51.014Z,4.60
2023-02-01T15:03:03.945Z,4.50
2023-02-01T15:08:14.134Z,4.50
2023-02-01T15:13:26.587Z,4.60
2023-02-01T15:18:31.343Z,4.60
2023-02-01T15:23:35.111Z,4.50
2023-02-01T15:28:39.523Z,4.50
2023-02-01T15:33:58.516Z,4.50
2023-02-01T15:39:19.375Z,4.50
2023-02-01T15:44:34.588Z,4.50
2023-02-01T15:49:43.303Z,4.50
2023-02-01T15:54:53.342Z,4.40
2023-02-01T15:59:57.695Z,4.40
2023-02-01T16:05:03.227Z,4.40
2023-02-01T16:10:27.263Z,4.40
2023-02-01T16:15:31.519Z,4.30
2023-02-01T16:20:39.666Z,4.20
2023-02-01T16:25:43.181Z,4.20
2023-02-01T16:30:46.637Z,4.20
2023-02-01T16:35:52.264Z,4.10
2023-02-01T16:40:55.637Z,4.20
2023-02-01T16:46:06.616Z,4.10
2023-02-01T16:51:14.483Z,4.20
2023-02-01T16:56:20.167Z,4.10
2023-02-01T17:01:29.487Z,4.00
2023-02-01T17:06:37.853Z,4.00
2023-02-01T17:11:41.122Z,4.10
2023-02-01T17:16:46.439Z,4.00
2023-02-01T17:21:55.133Z,4.00
2023-02-01T17:27:04.842Z,4.00
2023-02-01T17:32:21.793Z,4.00
2023-02-01T17:37:29.582Z,4.00
2023-02-01T17:48:01.700Z,3.90
2023-02-01T17:53:20.520Z,3.90
2023-02-01T17:58:24.215Z,4.00
2023-02-01T18:03:37.816Z,3.90
2023-02-01T18:08:49.210Z,4.00
2023-02-01T18:13:58.798Z,3.90
2023-02-01T18:19:05.373Z,3.80
2023-02-01T18:24:23.503Z,3.70
2023-02-01T18:29:37.956Z,3.70
2023-02-01T18:35:28.863Z,3.70
2023-02-01T18:40:39.020Z,3.80
2023-02-01T18:45:50.305Z,3.80
2023-02-01T18:50:57.627Z,3.80
2023-02-01T18:56:19.542Z,3.90
2023-02-01T19:01:28.821Z,3.90
2023-02-01T19:06:37.860Z,3.80
2023-02-01T19:11:45.943Z,3.80
2023-02-01T19:16:54.860Z,3.80
2023-02-01T19:21:59.179Z,3.90
2023-02-01T19:27:05.926Z,3.90
2023-02-01T19:32:18.170Z,3.90
2023-02-01T19:37:34.861Z,3.90
2023-02-01T19:42:51.208Z,3.80
2023-02-01T19:48:13.255Z,3.80
2023-02-01T19:53:24.713Z,3.70
2023-02-01T19:58:52.132Z,3.70
2023-02-01T20:03:56.273Z,3.70
2023-02-01T20:08:59.891Z,3.70
2023-02-01T20:14:05.597Z,3.80
2023-02-01T20:19:16.176Z,3.80
2023-02-01T20:24:19.912Z,3.80
2023-02-01T20:29:34.891Z,3.90
2023-02-01T20:34:54.547Z,3.90
2023-02-01T20:40:01.059Z,3.90
2023-02-01T20:45:13.014Z,3.90
2023-02-01T20:50:31.065Z,3.90
2023-02-01T20:55:48.352Z,3.90
2023-02-01T21:00:55.238Z,3.90
2023-02-01T21:06:12.443Z,3.90
2023-02-01T21:11:24.646Z,3.90
2023-02-01T21:22:00.835Z,3.80
2023-02-01T21:27:15.651Z,3.90
2023-02-01T21:32:24.761Z,3.90
2023-02-01T21:37:41.304Z,3.90
2023-02-01T21:42:45.829Z,3.90
2023-02-01T21:47:54.077Z,3.90
2023-02-01T21:53:00.517Z,3.90
2023-02-01T21:58:27.105Z,3.90
2023-02-01T22:03:40.067Z,3.80
2023-02-01T22:08:46.538Z,3.70
2023-02-01T22:13:59.960Z,3.60
2023-02-01T22:19:04.740Z,3.60
2023-02-01T22:24:16.525Z,3.60
2023-02-01T22:29:21.203Z,3.60
2023-02-01T22:34:25.984Z,3.70
2023-02-01T22:39:29.344Z,3.70
2023-02-01T22:44:41.415Z,3.70
2023-02-01T22:50:01.649Z,3.70
2023-02-01T22:55:07.623Z,3.70
2023-02-01T23:00:16.216Z,3.70
2023-02-01T23:05:28.104Z,3.80
2023-02-01T23:10:32.458Z,3.80
2023-02-01T23:15:39.987Z,3.70
2023-02-01T23:20:55.144Z,3.50
2023-02-01T23:26:14.898Z,3.40
2023-02-01T23:31:18.292Z,3.40
2023-02-01T23:36:26.317Z,3.40
2023-02-01T23:41:31.851Z,3.50
2023-02-01T23:46:44.694Z,3.50
2023-02-01T23:51:54.358Z,3.60
2023-02-01T23:56:57.869Z,3.60
